createdAt,value
2022-10-07T00:01:12.554Z,11.00
2022-10-07T00:03:42.958Z,10.90
2022-10-07T00:06:14.242Z,10.90
2022-10-07T00:08:44.910Z,10.90
2022-10-07T00:11:15.770Z,10.90
2022-10-07T00:13:45.923Z,10.90
2022-10-07T00:16:16.041Z,11.00
2022-10-07T00:18:46.459Z,11.10
2022-10-07T00:21:17.489Z,11.20
2022-10-07T00:23:47.744Z,11.30
2022-10-07T00:26:19.541Z,11.20
2022-10-07T00:28:50.076Z,11.30
2022-10-07T00:31:21.482Z,11.30
2022-10-07T00:33:52.411Z,11.40
2022-10-07T00:36:23.603Z,11.50
2022-10-07T00:38:53.414Z,11.50
2022-10-07T00:41:25.253Z,11.50
2022-10-07T00:43:53.869Z,11.50
2022-10-07T00:46:29.493Z,11.50
2022-10-07T00:49:01.850Z,11.60
2022-10-07T00:51:33.506Z,11.60
2022-10-07T00:54:04.775Z,11.60
2022-10-07T00:56:35.132Z,11.50
2022-10-07T00:59:03.480Z,11.60
2022-10-07T01:01:32.494Z,11.50
2022-10-07T01:04:02.297Z,11.50
2022-10-07T01:06:31.290Z,11.50
2022-10-07T01:08:59.881Z,11.50
2022-10-07T01:11:40.837Z,11.50
2022-10-07T01:14:13.407Z,11.60
2022-10-07T01:16:50.296Z,11.60
2022-10-07T01:19:41.897Z,11.50
2022-10-07T01:22:23.149Z,11.60
2022-10-07T01:24:59.986Z,11.60
2022-10-07T01:27:31.433Z,11.60
2022-10-07T01:30:03.598Z,11.60
2022-10-07T01:32:37.030Z,11.70
2022-10-07T01:35:11.084Z,11.70
2022-10-07T01:37:44.913Z,11.60
2022-10-07T01:40:17.184Z,11.60
2022-10-07T01:42:47.783Z,11.60
2022-10-07T01:45:21.435Z,11.60
2022-10-07T01:47:50.604Z,11.60
2022-10-07T01:50:24.047Z,11.60
2022-10-07T01:53:05.121Z,11.60
2022-10-07T01:55:45.306Z,11.50
2022-10-07T01:58:33.238Z,11.50
2022-10-07T02:01:13.505Z,11.50
2022-10-07T02:04:06.458Z,11.60
2022-10-07T02:06:43.505Z,11.60
2022-10-07T02:09:22.193Z,11.50
2022-10-07T02:11:56.566Z,11.50
2022-10-07T02:14:34.360Z,11.50
2022-10-07T02:17:08.202Z,11.50
2022-10-07T02:19:40.523Z,11.50
2022-10-07T02:22:10.000Z,11.50
2022-10-07T02:24:40.583Z,11.40
2022-10-07T02:27:13.987Z,11.40
2022-10-07T02:29:49.991Z,11.40
2022-10-07T02:32:21.711Z,11.30
2022-10-07T02:34:55.675Z,11.40
2022-10-07T02:37:28.032Z,11.40
2022-10-07T02:39:58.128Z,11.40
2022-10-07T02:42:32.380Z,11.40
2022-10-07T02:45:12.515Z,11.30
2022-10-07T02:47:47.965Z,11.30
2022-10-07T02:50:22.455Z,11.20
2022-10-07T02:52:56.028Z,11.30
2022-10-07T02:55:27.901Z,11.20
2022-10-07T02:58:01.634Z,11.20
2022-10-07T03:00:35.697Z,11.10
2022-10-07T03:03:06.134Z,11.10
2022-10-07T03:05:43.752Z,11.10
2022-10-07T03:08:12.866Z,11.00
2022-10-07T03:10:43.246Z,10.90
2022-10-07T03:13:16.090Z,10.80
2022-10-07T03:15:51.613Z,10.70
2022-10-07T03:18:30.289Z,10.60
2022-10-07T03:21:33.518Z,10.60
2022-10-07T03:24:05.043Z,10.40
2022-10-07T03:26:39.797Z,10.30
2022-10-07T03:29:10.598Z,10.30
2022-10-07T03:31:42.907Z,10.20
2022-10-07T03:34:12.235Z,10.30
2022-10-07T03:36:42.883Z,10.10
2022-10-07T03:39:12.671Z,10.10
2022-10-07T03:41:41.306Z,10.10
2022-10-07T03:44:09.560Z,9.90
2022-10-07T03:46:38.458Z,9.90
2022-10-07T03:49:08.644Z,9.90
2022-10-07T03:51:37.302Z,9.90
2022-10-07T03:54:08.505Z,9.80
2022-10-07T03:56:37.403Z,9.80
2022-10-07T03:59:05.872Z,9.50
2022-10-07T04:01:34.352Z,9.50
2022-10-07T04:04:03.290Z,9.40
2022-10-07T04:06:38.912Z,9.20
2022-10-07T04:09:14.127Z,9.20
2022-10-07T04:11:43.649Z,9.10
2022-10-07T04:14:12.594Z,9.20
2022-10-07T04:16:42.698Z,9.10
2022-10-07T04:19:14.183Z,9.00
2022-10-07T04:21:45.254Z,9.00
2022-10-07T04:24:13.441Z,8.90
2022-10-07T04:26:42.395Z,8.80
2022-10-07T04:29:11.754Z,8.80
2022-10-07T04:31:40.085Z,8.80
2022-10-07T04:34:10.349Z,10.20
2022-10-07T04:36:42.337Z,11.20
2022-10-07T04:39:16.641Z,11.40
2022-10-07T04:41:54.672Z,11.60
2022-10-07T04:44:28.432Z,10.90
2022-10-07T04:47:05.475Z,10.50
2022-10-07T04:52:08.414Z,9.20
2022-10-07T04:54:41.188Z,8.60
2022-10-07T04:57:13.448Z,8.50
2022-10-07T04:59:43.767Z,8.40
2022-10-07T05:02:16.252Z,8.30
2022-10-07T05:04:47.284Z,8.20
2022-10-07T05:07:18.522Z,8.10
2022-10-07T05:09:49.080Z,8.10
2022-10-07T05:12:18.270Z,8.00
2022-10-07T05:14:47.214Z,8.00
2022-10-07T05:17:17.010Z,7.80
2022-10-07T05:19:45.375Z,7.70
2022-10-07T05:22:14.033Z,7.70
2022-10-07T05:24:42.957Z,7.70
2022-10-07T05:27:14.957Z,7.70
2022-10-07T05:29:44.387Z,7.80
2022-10-07T05:32:12.597Z,7.90
2022-10-07T05:34:41.077Z,7.90
2022-10-07T05:37:09.750Z,8.10
2022-10-07T05:39:39.383Z,8.20
2022-10-07T05:42:16.607Z,8.30
2022-10-07T05:44:53.424Z,8.40
2022-10-07T05:47:22.228Z,8.40
2022-10-07T05:49:51.762Z,8.40
2022-10-07T05:52:21.134Z,8.40
2022-10-07T05:54:52.180Z,8.50
2022-10-07T05:57:23.775Z,8.50
2022-10-07T05:59:52.905Z,8.60
2022-10-07T06:02:22.319Z,8.70
2022-10-07T06:04:50.898Z,8.80
2022-10-07T06:07:21.463Z,8.90
2022-10-07T06:10:10.136Z,8.90
2022-10-07T06:12:58.090Z,8.90
2022-10-07T06:15:26.875Z,8.90
2022-10-07T06:17:55.205Z,8.90
2022-10-07T06:20:23.938Z,8.90
2022-10-07T06:22:55.355Z,9.00
2022-10-07T06:25:24.258Z,8.90
2022-10-07T06:27:56.482Z,9.10
2022-10-07T06:30:26.651Z,9.20
2022-10-07T06:32:56.353Z,9.30
2022-10-07T06:35:24.874Z,9.30
2022-10-07T06:40:23.569Z,9.60
2022-10-07T06:42:51.987Z,9.60
2022-10-07T06:45:44.825Z,9.50
2022-10-07T06:48:14.785Z,9.50
2022-10-07T06:50:51.696Z,9.70
2022-10-07T06:53:21.183Z,9.70
2022-10-07T06:55:51.496Z,9.80
2022-10-07T06:58:23.441Z,9.80
2022-10-07T07:00:54.401Z,9.90
2022-10-07T07:03:24.684Z,10.00
2022-10-07T07:05:55.018Z,10.00
2022-10-07T07:08:32.037Z,10.10
2022-10-07T07:11:06.256Z,10.20
2022-10-07T07:13:36.171Z,10.30
2022-10-07T07:16:07.036Z,10.30
2022-10-07T07:18:35.882Z,10.50
2022-10-07T07:21:07.933Z,10.40
2022-10-07T07:23:37.360Z,10.30
2022-10-07T07:26:05.776Z,10.60
2022-10-07T07:28:35.128Z,10.60
2022-10-07T07:31:10.867Z,10.70
2022-10-07T07:33:39.911Z,10.70
2022-10-07T07:36:16.609Z,10.70
2022-10-07T07:38:52.395Z,10.60
2022-10-07T07:41:23.928Z,10.70
2022-10-07T07:43:54.083Z,10.90
2022-10-07T07:46:26.298Z,10.90
2022-10-07T07:48:55.687Z,10.80
2022-10-07T07:51:24.525Z,10.80
2022-10-07T07:53:53.569Z,10.80
2022-10-07T07:56:22.587Z,10.90
2022-10-07T07:58:51.343Z,11.20
2022-10-07T08:01:20.439Z,11.30
2022-10-07T08:03:50.991Z,11.10
2022-10-07T08:06:21.787Z,11.20
2022-10-07T08:08:52.217Z,11.60
2022-10-07T08:11:21.442Z,11.80
2022-10-07T08:13:51.551Z,11.80
2022-10-07T08:16:23.452Z,12.00
2022-10-07T08:18:56.489Z,12.20
2022-10-07T08:21:27.951Z,12.20
2022-10-07T08:24:00.435Z,12.30
2022-10-07T08:26:34.108Z,12.50
2022-10-07T08:29:05.699Z,12.40
2022-10-07T08:31:36.011Z,12.40
2022-10-07T08:34:06.358Z,11.90
2022-10-07T08:36:35.439Z,11.80
2022-10-07T08:39:05.815Z,11.40
2022-10-07T08:41:51.538Z,11.50
2022-10-07T08:44:25.816Z,11.50
2022-10-07T08:47:02.933Z,11.50
2022-10-07T08:49:44.911Z,11.80
2022-10-07T08:52:40.804Z,11.90
2022-10-07T08:55:19.528Z,11.90
2022-10-07T08:58:05.726Z,11.70
2022-10-07T09:00:42.231Z,12.00
2022-10-07T09:03:24.940Z,12.20
2022-10-07T09:05:57.071Z,12.50
2022-10-07T09:08:30.527Z,12.80
2022-10-07T09:11:15.500Z,12.80
2022-10-07T09:13:49.278Z,13.00
2022-10-07T09:16:23.118Z,13.10
2022-10-07T09:18:54.162Z,12.90
2022-10-07T09:21:32.325Z,12.90
2022-10-07T09:24:13.417Z,13.10
2022-10-07T09:26:42.148Z,13.20
2022-10-07T09:29:10.778Z,13.30
2022-10-07T09:31:39.943Z,13.30
2022-10-07T09:34:20.017Z,12.90
2022-10-07T09:37:12.947Z,13.20
2022-10-07T09:39:42.934Z,13.00
2022-10-07T09:42:36.309Z,13.20
2022-10-07T09:45:18.992Z,12.70
2022-10-07T09:47:52.625Z,13.10
2022-10-07T09:50:38.295Z,13.40
2022-10-07T09:53:19.356Z,13.60
2022-10-07T09:55:49.656Z,13.80
2022-10-07T09:58:21.701Z,13.70
2022-10-07T10:00:52.362Z,13.40
2022-10-07T10:03:21.467Z,13.40
2022-10-07T10:05:57.883Z,13.20
2022-10-07T10:08:30.172Z,13.40
2022-10-07T10:11:00.100Z,12.90
2022-10-07T10:13:31.825Z,12.70
2022-10-07T10:16:01.417Z,13.10
2022-10-07T10:18:39.139Z,13.10
2022-10-07T10:21:22.504Z,12.80
2022-10-07T10:23:53.965Z,12.70
2022-10-07T10:26:50.746Z,13.10
2022-10-07T10:29:35.836Z,13.60
2022-10-07T10:32:29.911Z,13.00
2022-10-07T10:35:03.116Z,12.90
2022-10-07T10:37:47.400Z,13.00
2022-10-07T10:40:26.419Z,12.90
2022-10-07T10:43:08.168Z,12.90
2022-10-07T10:45:43.082Z,13.20
2022-10-07T10:48:30.288Z,12.90
2022-10-07T10:51:11.832Z,12.70
2022-10-07T10:53:49.160Z,12.50
2022-10-07T10:56:34.248Z,12.60
2022-10-07T10:59:22.306Z,13.00
2022-10-07T11:01:59.463Z,12.50
2022-10-07T11:04:38.990Z,12.80
2022-10-07T11:07:19.002Z,12.50
2022-10-07T11:09:52.437Z,13.00
2022-10-07T11:12:26.618Z,13.10
2022-10-07T11:14:59.966Z,13.60
2022-10-07T11:17:32.709Z,14.20
2022-10-07T11:20:14.898Z,14.40
2022-10-07T11:22:48.973Z,14.00
2022-10-07T11:25:26.224Z,13.60
2022-10-07T11:28:01.117Z,14.30
2022-10-07T11:30:36.961Z,14.60
2022-10-07T11:33:09.453Z,14.30
2022-10-07T11:35:44.562Z,14.70
2022-10-07T11:38:18.432Z,14.50
2022-10-07T11:40:51.255Z,14.70
2022-10-07T11:43:28.748Z,15.20
2022-10-07T11:46:01.031Z,15.00
2022-10-07T11:48:38.751Z,14.40
2022-10-07T11:51:09.820Z,14.50
2022-10-07T11:53:40.995Z,14.50
2022-10-07T11:56:20.518Z,14.90
2022-10-07T11:58:58.735Z,15.10
2022-10-07T12:01:42.105Z,14.50
2022-10-07T12:04:25.502Z,14.90
2022-10-07T12:07:31.999Z,15.00
2022-10-07T12:10:23.237Z,15.00
2022-10-07T12:12:55.247Z,15.50
2022-10-07T12:15:38.701Z,15.70
2022-10-07T12:18:27.767Z,15.90
2022-10-07T12:21:06.531Z,16.00
2022-10-07T12:23:40.584Z,15.60
2022-10-07T12:26:52.434Z,15.70
2022-10-07T12:29:50.301Z,15.70
2022-10-07T12:32:42.844Z,15.80
2022-10-07T12:35:53.974Z,15.10
2022-10-07T12:38:30.977Z,15.40
2022-10-07T12:41:23.291Z,15.70
2022-10-07T12:43:58.646Z,15.80
2022-10-07T12:46:32.156Z,15.90
2022-10-07T12:49:05.464Z,16.00
2022-10-07T12:51:38.654Z,16.30
2022-10-07T12:54:11.418Z,16.20
2022-10-07T12:56:43.971Z,16.40
2022-10-07T12:59:48.738Z,16.20
2022-10-07T13:03:17.040Z,16.20
2022-10-07T13:06:16.571Z,16.20
2022-10-07T13:09:19.750Z,16.10
2022-10-07T13:12:21.874Z,16.10
2022-10-07T13:15:03.589Z,16.40
2022-10-07T13:17:47.245Z,16.20
2022-10-07T13:20:32.746Z,15.90
2022-10-07T13:23:08.124Z,16.20
2022-10-07T13:25:36.537Z,16.00
2022-10-07T13:28:07.119Z,16.30
2022-10-07T13:30:38.931Z,16.40
2022-10-07T13:33:15.780Z,16.30
2022-10-07T13:35:44.233Z,16.30
2022-10-07T13:38:24.527Z,16.60
2022-10-07T13:40:59.088Z,16.70
2022-10-07T13:43:30.057Z,17.00
2022-10-07T13:46:00.069Z,17.20
2022-10-07T13:48:32.757Z,17.20
2022-10-07T13:51:02.051Z,17.20
2022-10-07T13:53:33.663Z,17.10
2022-10-07T13:56:19.753Z,17.30
2022-10-07T13:58:48.685Z,17.40
2022-10-07T14:01:17.283Z,17.10
2022-10-07T14:04:09.308Z,17.30
2022-10-07T14:06:49.763Z,17.20
2022-10-07T14:09:22.360Z,17.90
2022-10-07T14:11:56.235Z,18.80
2022-10-07T14:14:28.541Z,19.00
2022-10-07T14:17:00.230Z,19.60
2022-10-07T14:19:33.165Z,19.00
2022-10-07T14:22:03.612Z,18.80
2022-10-07T14:24:33.685Z,18.50
2022-10-07T14:27:02.038Z,18.50
2022-10-07T14:29:39.309Z,18.80
2022-10-07T14:32:30.151Z,20.10
2022-10-07T14:35:20.633Z,19.90
2022-10-07T14:37:49.325Z,19.80
2022-10-07T14:40:21.485Z,21.40
2022-10-07T14:42:50.844Z,20.20
2022-10-07T14:45:21.111Z,19.20
2022-10-07T14:47:50.702Z,19.80
2022-10-07T14:50:20.731Z,19.60
2022-10-07T14:52:52.203Z,20.70
2022-10-07T14:57:53.601Z,20.20
2022-10-07T15:00:23.832Z,20.80
2022-10-07T15:02:53.145Z,20.90
2022-10-07T15:05:23.141Z,20.90
2022-10-07T15:07:51.794Z,20.30
2022-10-07T15:10:23.623Z,20.20
2022-10-07T15:12:52.187Z,19.80
2022-10-07T15:15:21.038Z,20.20
2022-10-07T15:17:49.583Z,20.50
2022-10-07T15:20:18.910Z,21.10
2022-10-07T15:22:47.857Z,21.60
2022-10-07T15:25:17.934Z,22.30
2022-10-07T15:27:48.065Z,21.60
2022-10-07T15:30:16.711Z,21.50
2022-10-07T15:32:44.988Z,21.10
2022-10-07T15:35:13.946Z,21.20
2022-10-07T15:37:45.726Z,20.90
2022-10-07T15:40:14.815Z,20.80
2022-10-07T15:42:44.176Z,20.50
2022-10-07T15:45:15.063Z,20.90
2022-10-07T15:47:43.573Z,20.80
2022-10-07T15:50:12.071Z,21.00
2022-10-07T15:52:40.456Z,20.90
2022-10-07T15:55:09.700Z,20.10
2022-10-07T15:57:38.151Z,20.10
2022-10-07T16:00:06.989Z,19.80
2022-10-07T16:02:46.584Z,19.50
2022-10-07T16:05:15.268Z,19.00
2022-10-07T16:07:44.068Z,19.30
2022-10-07T16:10:13.302Z,18.80
2022-10-07T16:12:42.003Z,19.00
2022-10-07T16:15:10.755Z,17.90
2022-10-07T16:17:38.925Z,17.40
2022-10-07T16:20:11.652Z,17.60
2022-10-07T16:22:40.163Z,17.60
2022-10-07T16:25:09.479Z,17.00
2022-10-07T16:27:51.404Z,16.50
2022-10-07T16:30:37.657Z,15.70
2022-10-07T16:33:06.004Z,15.20
2022-10-07T16:35:35.981Z,14.90
2022-10-07T16:38:04.897Z,14.50
2022-10-07T16:40:33.200Z,14.50
2022-10-07T16:43:01.524Z,14.20
2022-10-07T16:45:29.715Z,13.90
2022-10-07T16:47:58.774Z,13.60
2022-10-07T16:50:27.180Z,13.50
2022-10-07T16:52:57.878Z,13.40
2022-10-07T16:55:26.304Z,13.00
2022-10-07T16:57:54.761Z,12.80
2022-10-07T17:00:23.212Z,12.70
2022-10-07T17:02:51.662Z,12.60
2022-10-07T17:05:19.882Z,12.30
2022-10-07T17:07:48.966Z,12.10
2022-10-07T17:10:20.419Z,11.90
2022-10-07T17:12:48.804Z,11.70
2022-10-07T17:15:18.639Z,11.60
2022-10-07T17:17:47.253Z,11.50
2022-10-07T17:20:16.035Z,11.50
2022-10-07T17:22:44.549Z,11.40
2022-10-07T17:25:13.486Z,11.40
2022-10-07T17:27:43.028Z,11.40
2022-10-07T17:30:17.033Z,11.30
2022-10-07T17:32:45.617Z,11.40
2022-10-07T17:35:13.605Z,11.40
2022-10-07T17:37:41.958Z,11.20
2022-10-07T17:40:10.882Z,11.20
2022-10-07T17:42:39.232Z,11.10
2022-10-07T17:45:11.409Z,11.10
2022-10-07T17:47:40.221Z,11.00
2022-10-07T17:50:08.687Z,10.90
2022-10-07T17:52:36.938Z,11.00
2022-10-07T17:55:07.104Z,10.90
2022-10-07T17:57:35.334Z,10.90
2022-10-07T18:00:06.514Z,10.90
2022-10-07T18:02:41.011Z,10.70
2022-10-07T18:05:10.464Z,10.60
2022-10-07T18:07:39.204Z,10.60
2022-10-07T18:10:08.091Z,10.60
2022-10-07T18:12:53.977Z,10.50
2022-10-07T18:15:23.388Z,10.50
2022-10-07T18:17:57.227Z,10.40
2022-10-07T18:20:28.281Z,10.50
2022-10-07T18:22:57.217Z,10.40
2022-10-07T18:25:25.996Z,10.40
2022-10-07T18:27:54.431Z,10.40
2022-10-07T18:30:23.065Z,10.30
2022-10-07T18:32:53.204Z,10.40
2022-10-07T18:35:21.572Z,10.30
2022-10-07T18:37:52.765Z,10.30
2022-10-07T18:40:21.118Z,10.40
2022-10-07T18:42:49.678Z,10.30
2022-10-07T18:45:18.135Z,10.20
2022-10-07T18:47:47.036Z,10.10
2022-10-07T18:50:17.391Z,10.10
2022-10-07T18:52:45.779Z,10.00
2022-10-07T18:55:14.374Z,10.00
2022-10-07T18:57:42.390Z,9.90
2022-10-07T19:00:12.066Z,9.80
2022-10-07T19:02:42.954Z,9.80
2022-10-07T19:05:11.149Z,9.80
2022-10-07T19:07:41.290Z,9.70
2022-10-07T19:10:10.549Z,9.60
2022-10-07T19:12:56.118Z,9.50
2022-10-07T19:15:24.303Z,9.50
2022-10-07T19:17:52.689Z,9.70
2022-10-07T19:20:21.208Z,9.60
2022-10-07T19:22:51.202Z,9.60
2022-10-07T19:25:37.134Z,9.60
2022-10-07T19:28:05.794Z,9.50
2022-10-07T19:30:33.826Z,9.40
2022-10-07T19:33:02.627Z,9.30
2022-10-07T19:35:33.188Z,9.30
2022-10-07T19:38:04.534Z,9.30
2022-10-07T19:40:34.856Z,9.30
2022-10-07T19:43:03.412Z,9.40
2022-10-07T19:45:34.356Z,9.40
2022-10-07T19:48:04.133Z,9.60
2022-10-07T19:53:03.872Z,9.80
2022-10-07T19:55:34.573Z,9.70
2022-10-07T19:58:04.004Z,9.70
2022-10-07T20:00:32.834Z,9.60
2022-10-07T20:03:01.019Z,9.60
2022-10-07T20:05:31.706Z,9.60
2022-10-07T20:08:01.722Z,9.70
2022-10-07T20:10:31.703Z,9.50
2022-10-07T20:13:00.046Z,9.60
2022-10-07T20:15:28.794Z,9.70
2022-10-07T20:17:57.466Z,9.60
2022-10-07T20:20:26.369Z,9.60
2022-10-07T20:22:56.171Z,9.60
2022-10-07T20:25:25.527Z,9.60
2022-10-07T20:27:55.493Z,9.60
2022-10-07T20:30:23.765Z,9.50
2022-10-07T20:32:52.160Z,9.40
2022-10-07T20:35:20.723Z,9.30
2022-10-07T20:37:48.884Z,9.30
2022-10-07T20:40:35.098Z,9.20
2022-10-07T20:43:05.047Z,9.20
2022-10-07T20:45:53.607Z,9.20
2022-10-07T20:48:21.904Z,9.10
2022-10-07T20:50:51.251Z,9.10
2022-10-07T20:53:19.268Z,9.00
2022-10-07T20:55:47.892Z,9.00
2022-10-07T20:58:17.850Z,9.10
2022-10-07T21:00:46.255Z,9.00
2022-10-07T21:03:15.384Z,8.90
2022-10-07T21:05:43.952Z,8.90
2022-10-07T21:08:11.951Z,8.90
2022-10-07T21:10:40.975Z,8.90
2022-10-07T21:13:09.344Z,8.80
2022-10-07T21:15:39.343Z,8.80
2022-10-07T21:18:07.890Z,8.80
2022-10-07T21:20:35.983Z,8.80
2022-10-07T21:23:04.532Z,8.70
2022-10-07T21:25:33.924Z,8.80
2022-10-07T21:28:02.563Z,8.70
2022-10-07T21:30:32.913Z,8.60
2022-10-07T21:33:03.051Z,8.60
2022-10-07T21:35:32.932Z,8.50
2022-10-07T21:38:01.200Z,8.60
2022-10-07T21:40:30.738Z,8.40
2022-10-07T21:42:59.125Z,8.40
2022-10-07T21:45:28.499Z,8.40
2022-10-07T21:47:58.972Z,8.40
2022-10-07T21:50:28.658Z,8.40
2022-10-07T21:52:56.804Z,8.30
2022-10-07T21:55:25.394Z,8.40
2022-10-07T21:57:53.603Z,8.30
2022-10-07T22:00:22.023Z,8.30
2022-10-07T22:02:50.882Z,8.20
2022-10-07T22:05:19.688Z,8.20
2022-10-07T22:08:08.708Z,8.20
2022-10-07T22:10:36.890Z,8.20
2022-10-07T22:13:05.962Z,8.10
2022-10-07T22:15:36.874Z,8.10
2022-10-07T22:18:06.006Z,8.10
2022-10-07T22:20:36.715Z,8.10
2022-10-07T22:23:06.308Z,8.10
2022-10-07T22:25:35.488Z,8.00
2022-10-07T22:28:03.615Z,8.00
2022-10-07T22:30:32.212Z,8.00
2022-10-07T22:33:00.385Z,8.00
2022-10-07T22:35:30.272Z,8.00
2022-10-07T22:37:59.217Z,8.00
2022-10-07T22:40:29.196Z,8.00
2022-10-07T22:42:57.652Z,7.90
2022-10-07T22:45:25.651Z,7.90
2022-10-07T22:47:54.211Z,7.90
2022-10-07T22:50:22.595Z,7.80
2022-10-07T22:52:52.429Z,7.80
2022-10-07T22:55:21.290Z,7.80
2022-10-07T22:57:53.473Z,7.80
2022-10-07T23:00:22.323Z,7.70
2022-10-07T23:02:51.863Z,7.70
2022-10-07T23:05:22.554Z,7.70
2022-10-07T23:07:50.926Z,7.60
2022-10-07T23:10:19.208Z,7.60
2022-10-07T23:12:48.216Z,7.60
2022-10-07T23:15:20.563Z,7.50
2022-10-07T23:17:48.749Z,7.40
2022-10-07T23:20:17.233Z,7.40
2022-10-07T23:22:46.074Z,7.30
2022-10-07T23:25:14.450Z,7.30
2022-10-07T23:27:43.217Z,7.30
2022-10-07T23:30:12.090Z,7.20
2022-10-07T23:32:41.511Z,7.20
2022-10-07T23:35:11.953Z,7.10
2022-10-07T23:37:40.126Z,7.10
2022-10-07T23:40:10.253Z,7.10
2022-10-07T23:42:38.478Z,7.10
2022-10-07T23:45:07.955Z,7.00
2022-10-07T23:47:36.435Z,6.90
2022-10-07T23:50:07.009Z,6.90
2022-10-07T23:52:35.563Z,7.00
2022-10-07T23:55:03.981Z,7.00
2022-10-07T23:57:32.521Z,6.90
